Time;durP1;ratioP1;P1;durP2;ratioP2;P2;SDS_P1;SDS_P2;PMS_P1;PMS_P2;Temp;Humidity;BMP_temperature;BMP_pressure;BME280_temperature;BME280_humidity;BME280_pressure;Samples;Min_cycle;Max_cycle;Signal;HPM_P1;HPM_P2
2022/10/29 00:01:25;;;;;;;139.38;83.28;;;;;;;22.08;72.78;98846.56;4933753;28;20140;-67
2022/10/29 00:04:15;;;;;;;140.40;83.82;;;;;;;22.13;72.60;98842.19;4935212;28;20061;-66
2022/10/29 00:07:04;;;;;;;138.90;84.10;;;;;;;22.12;72.62;98846.00;4940074;28;20054;-66
2022/10/29 00:09:46;;;;;;;142.32;81.65;;;;;;;22.05;72.76;98844.41;4951877;28;20043;-68
2022/10/29 00:12:35;;;;;;;127.18;79.70;;;;;;;22.00;72.96;98849.91;4937379;28;20723;-69
2022/10/29 00:15:24;;;;;;;133.07;82.82;;;;;;;22.02;73.07;98847.72;4903351;28;20378;-68
2022/10/29 00:18:19;;;;;;;142.90;84.22;;;;;;;21.97;72.71;98855.13;4971670;28;20049;-68
2022/10/29 00:21:02;;;;;;;149.60;86.47;;;;;;;21.90;73.25;98859.03;4971532;28;20052;-69
2022/10/29 00:23:52;;;;;;;139.50;83.88;;;;;;;21.96;73.29;98861.72;4966739;28;20125;-67
2022/10/29 00:26:41;;;;;;;137.98;82.25;;;;;;;21.96;73.11;98859.78;4949799;28;20050;-67
2022/10/29 00:29:23;;;;;;;137.48;83.53;;;;;;;21.88;73.36;98858.50;4968169;28;20521;-67
2022/10/29 00:32:12;;;;;;;127.65;84.40;;;;;;;21.88;73.60;98861.22;4968100;28;20051;-68
2022/10/29 00:35:01;;;;;;;126.43;81.18;;;;;;;21.89;73.44;98860.09;4967867;28;20748;-68
2022/10/29 00:37:50;;;;;;;140.10;83.25;;;;;;;21.83;73.78;98852.25;4968274;28;20352;-67
2022/10/29 00:40:37;;;;;;;138.70;84.60;;;;;;;21.84;74.11;98857.44;4968416;28;20105;-68
2022/10/29 00:43:29;;;;;;;135.52;83.38;;;;;;;21.87;73.99;98853.31;4967666;28;20050;-68
2022/10/29 00:46:30;;;;;;;148.73;87.82;;;;;;;21.88;73.68;98858.50;4968924;28;20831;-68
2022/10/29 00:49:26;;;;;;;140.07;86.53;;;;;;;21.76;73.81;98862.66;4964526;28;20121;-69
2022/10/29 00:52:24;;;;;;;140.88;88.97;;;;;;;21.83;73.47;98863.97;4946925;28;20054;-68
2022/10/29 00:55:04;;;;;;;142.82;90.63;;;;;;;21.71;74.01;98863.53;4966852;28;20591;-68
2022/10/29 00:58:01;;;;;;;145.63;89.78;;;;;;;21.75;73.98;98861.88;4967603;28;20074;-69
2022/10/29 01:00:37;;;;;;;150.65;93.57;;;;;;;21.79;73.96;98867.56;4967900;28;20082;-69
2022/10/29 01:03:32;;;;;;;157.35;97.82;;;;;;;21.88;73.60;98861.22;4967308;28;20051;-69
2022/10/29 01:06:08;;;;;;;165.15;96.53;;;;;;;21.75;74.02;98864.59;4967235;28;20054;-69
2022/10/29 01:08:57;;;;;;;168.68;100.78;;;;;;;21.91;73.23;98862.56;4966460;28;20057;-68
2022/10/29 01:11:57;;;;;;;177.73;102.68;;;;;;;21.75;73.09;98867.31;4965567;28;20145;-69
2022/10/29 01:15:06;;;;;;;170.68;101.10;;;;;;;21.74;72.94;98870.34;4967325;28;20057;-68
2022/10/29 01:18:13;;;;;;;168.32;101.82;;;;;;;21.78;73.51;98866.78;4964661;28;20074;-68
2022/10/29 01:21:15;;;;;;;167.10;102.35;;;;;;;21.89;73.35;98871.03;4965645;28;20039;-69
2022/10/29 01:24:25;;;;;;;171.50;100.88;;;;;;;21.80;73.46;98869.19;4967122;28;20043;-69
2022/10/29 01:27:26;;;;;;;171.63;105.50;;;;;;;21.81;73.22;98870.84;4967686;28;20518;-69
2022/10/29 01:30:07;;;;;;;;;;;;;;;21.95;72.43;98866.34;4967660;28;20074;-70
2022/10/29 01:33:14;;;;;;;187.10;109.70;;;;;;;21.93;72.48;98876.75;4966419;28;19922;-68
2022/10/29 01:36:29;;;;;;;198.13;113.18;;;;;;;21.95;72.49;98877.28;4963355;28;20514;-68
2022/10/29 01:39:48;;;;;;;196.50;114.18;;;;;;;21.92;72.51;98872.41;4966951;28;20050;-68
2022/10/29 01:42:38;;;;;;;193.40;115.75;;;;;;;21.86;72.59;98882.56;4961469;28;20046;-70
2022/10/29 01:45:49;;;;;;;185.93;115.13;;;;;;;21.94;72.44;98883.84;4981813;28;20097;-67
2022/10/29 01:48:51;;;;;;;200.48;116.63;;;;;;;22.05;71.95;98885.41;4987712;28;20732;-69
2022/10/29 01:51:42;;;;;;;195.13;121.65;;;;;;;22.12;71.20;98881.53;4958443;28;20059;-68
2022/10/29 01:54:31;;;;;;;199.50;120.28;;;;;;;22.17;71.01;98890.50;4967979;28;20059;-68
2022/10/29 01:57:30;;;;;;;207.38;121.18;;;;;;;22.29;70.61;98892.91;4986303;28;20148;-68
2022/10/29 02:00:24;;;;;;;195.43;119.15;;;;;;;22.19;71.05;98887.50;4952329;28;20453;-68
2022/10/29 02:03:34;;;;;;;191.32;114.20;;;;;;;22.21;71.72;98894.31;4953169;28;20058;-68
2022/10/29 02:06:54;;;;;;;188.38;114.45;;;;;;;22.44;71.99;98900.16;4957859;28;20456;-68
2022/10/29 02:10:03;;;;;;;186.10;112.80;;;;;;;22.47;72.08;98902.31;4956695;28;20047;-71
2022/10/29 02:12:54;;;;;;;199.25;115.18;;;;;;;22.43;72.39;98906.72;4950972;28;20043;-70
2022/10/29 02:15:49;;;;;;;175.57;110.60;;;;;;;22.50;72.54;98914.59;4965417;28;20154;-68
2022/10/29 02:18:53;;;;;;;173.73;108.25;;;;;;;22.63;73.06;98919.41;4966116;28;20146;-68
2022/10/29 02:21:43;;;;;;;;;;;;;;;22.76;71.78;98917.91;4967235;28;20074;-68
2022/10/29 02:24:25;;;;;;;172.82;104.78;;;;;;;22.71;72.06;98926.97;4943872;28;19930;-68
2022/10/29 02:27:14;;;;;;;187.95;108.28;;;;;;;22.83;71.82;98927.41;4962442;28;20632;-68
2022/10/29 02:29:56;;;;;;;181.95;109.70;;;;;;;22.96;72.15;98928.63;4966907;28;20065;-68
2022/10/29 02:32:45;;;;;;;197.75;109.28;;;;;;;23.15;71.72;98925.16;4966863;28;20078;-67
2022/10/29 02:35:34;;;;;;;187.93;112.40;;;;;;;23.09;72.39;98927.16;4970112;28;20802;-68
2022/10/29 02:38:16;;;;;;;192.45;111.05;;;;;;;23.16;72.42;98937.72;4967990;28;20047;-68
2022/10/29 02:41:05;;;;;;;199.80;109.55;;;;;;;23.32;72.02;98932.91;4962161;28;20061;-68
2022/10/29 02:43:47;;;;;;;205.45;111.63;;;;;;;23.49;71.54;98941.44;4942657;28;20112;-69
2022/10/29 02:46:38;;;;;;;207.93;110.70;;;;;;;23.60;71.43;98947.63;4950780;28;20113;-68
2022/10/29 02:49:20;;;;;;;199.18;109.50;;;;;;;23.71;70.91;98948.28;4918756;28;20097;-69
2022/10/29 02:52:09;;;;;;;210.45;112.63;;;;;;;23.79;71.23;98950.41;4961102;28;20074;-70
2022/10/29 02:54:52;;;;;;;213.82;113.95;;;;;;;23.94;70.67;98952.94;4926271;28;20109;-67
2022/10/29 02:57:41;;;;;;;205.73;111.78;;;;;;;24.01;70.50;98947.88;4963467;28;20117;-70
2022/10/29 03:00:23;;;;;;;212.40;114.97;;;;;;;24.18;69.64;98954.75;4965268;28;20050;-70
2022/10/29 03:03:12;;;;;;;214.25;119.40;;;;;;;24.20;68.37;98960.75;4965788;28;20140;-68
2022/10/29 03:06:07;;;;;;;225.68;127.07;;;;;;;24.33;66.96;98961.94;4944635;28;20114;-68
2022/10/29 03:08:43;;;;;;;223.13;126.28;;;;;;;24.41;67.63;98962.06;4940403;28;20061;-67
2022/10/29 03:11:39;;;;;;;233.05;130.90;;;;;;;24.59;66.31;98967.84;4963115;28;20061;-68
2022/10/29 03:14:15;;;;;;;211.88;126.63;;;;;;;24.67;66.35;98967.16;4965624;28;20046;-68
2022/10/29 03:17:10;;;;;;;231.40;129.70;;;;;;;24.86;65.89;98972.59;4960320;28;20549;-68
2022/10/29 03:19:59;;;;;;;206.70;124.25;;;;;;;24.97;65.79;98974.06;4966469;28;20134;-67
2022/10/29 03:22:48;;;;;;;222.68;125.22;;;;;;;25.08;64.37;98980.16;4960555;28;20055;-68
2022/10/29 03:25:37;;;;;;;212.95;125.43;;;;;;;25.21;65.69;98984.03;4961838;28;20117;-67
2022/10/29 03:28:19;;;;;;;221.52;126.63;;;;;;;25.37;64.32;98985.41;4964540;28;20051;-68
2022/10/29 03:31:08;;;;;;;234.90;130.38;;;;;;;25.46;65.34;98985.47;4950235;28;20054;-69
2022/10/29 03:33:50;;;;;;;202.65;122.35;;;;;;;25.74;64.09;98980.78;4957438;28;20342;-68
2022/10/29 03:36:45;;;;;;;208.65;122.28;;;;;;;25.97;63.60;98989.13;4957159;28;20054;-68
2022/10/29 03:39:20;;;;;;;192.60;121.97;;;;;;;26.00;63.69;98988.50;4965745;28;20370;-67
2022/10/29 03:42:09;;;;;;;189.85;119.78;;;;;;;26.17;62.93;98979.56;4966868;28;20454;-69
2022/10/29 03:44:45;;;;;;;194.88;116.63;;;;;;;26.43;62.77;98987.25;4965903;28;20051;-69
2022/10/29 03:47:35;;;;;;;193.27;119.57;;;;;;;26.51;62.50;98991.97;4965319;28;20047;-67
2022/10/29 03:50:24;;;;;;;191.10;118.68;;;;;;;26.59;61.59;98996.75;4956366;28;20046;-69
2022/10/29 03:53:14;;;;;;;190.15;117.13;;;;;;;26.90;59.19;98995.97;4967502;28;20146;-68
2022/10/29 03:55:57;;;;;;;194.03;116.23;;;;;;;27.08;59.52;99000.47;4969780;28;20058;-69
2022/10/29 03:58:46;;;;;;;187.68;113.50;;;;;;;27.35;57.93;99001.41;4972005;28;20347;-68
2022/10/29 04:01:35;;;;;;;196.60;109.45;;;;;;;27.68;57.08;98996.31;4980471;28;20054;-69
2022/10/29 04:04:17;;;;;;;177.65;100.05;;;;;;;28.00;54.51;98996.25;4988789;28;20062;-67
2022/10/29 04:07:06;;;;;;;159.65;92.82;;;;;;;28.33;53.58;98998.53;4975527;28;20046;-68
2022/10/29 04:09:48;;;;;;;148.65;90.38;;;;;;;28.54;54.53;98982.16;4969399;28;20050;-69
2022/10/29 04:12:43;;;;;;;139.73;80.50;;;;;;;29.15;52.12;98995.84;4967514;28;20173;-69
2022/10/29 04:15:18;;;;;;;125.47;72.88;;;;;;;29.52;48.71;98991.44;4936474;28;20051;-68
2022/10/29 04:18:15;;;;;;;130.93;71.70;;;;;;;29.85;48.58;98994.38;4970608;28;20046;-68
2022/10/29 04:20:52;;;;;;;121.38;71.10;;;;;;;30.02;46.87;98998.19;4976593;28;20453;-67
2022/10/29 04:24:07;;;;;;;133.43;74.53;;;;;;;30.05;45.89;99000.25;4959913;28;20145;-66
2022/10/29 04:27:02;;;;;;;129.13;75.40;;;;;;;30.18;46.98;98999.19;4956863;28;20078;-67
2022/10/29 04:30:11;;;;;;;139.45;74.95;;;;;;;30.38;47.53;98999.53;4979405;28;20046;-68
2022/10/29 04:33:05;;;;;;;137.10;75.70;;;;;;;30.24;49.49;98997.03;4965887;28;20057;-67
2022/10/29 04:36:01;;;;;;;124.35;69.70;;;;;;;30.63;45.32;98995.72;4967815;28;20504;-67
2022/10/29 04:38:37;;;;;;;100.30;54.10;;;;;;;30.66;44.96;99001.75;4969077;28;20059;-67
2022/10/29 04:41:26;;;;;;;91.97;48.33;;;;;;;30.96;44.93;99005.22;4965512;28;20628;-67
2022/10/29 04:44:15;;;;;;;84.28;43.42;;;;;;;31.09;43.05;98997.72;4967215;28;20129;-67
2022/10/29 04:47:10;;;;;;;87.28;42.40;;;;;;;31.04;43.57;98995.97;4968467;28;20712;-67
2022/10/29 04:49:45;;;;;;;61.95;35.25;;;;;;;30.78;41.68;99007.31;4969576;28;20127;-67
2022/10/29 04:52:34;;;;;;;63.13;35.30;;;;;;;30.99;38.27;98999.78;4949264;28;20062;-66
2022/10/29 04:55:23;;;;;;;78.03;34.50;;;;;;;31.29;39.66;99001.56;4948369;28;20479;-66
2022/10/29 04:58:12;;;;;;;70.90;33.92;;;;;;;31.43;43.30;98999.25;4967462;28;20050;-66
2022/10/29 05:01:07;;;;;;;75.20;36.90;;;;;;;31.41;40.26;99002.38;4967970;28;20055;-67
2022/10/29 05:03:49;;;;;;;63.72;33.88;;;;;;;31.28;39.50;98999.94;4950935;28;20062;-67
2022/10/29 05:06:40;;;;;;;66.28;32.30;;;;;;;31.34;39.86;98998.56;4955745;28;20443;-64
2022/10/29 05:09:29;;;;;;;61.30;31.38;;;;;;;31.92;38.20;99001.22;4969526;28;20074;-67
2022/10/29 05:12:12;;;;;;;49.42;31.00;;;;;;;31.62;39.93;98995.91;4931164;28;20074;-67
2022/10/29 05:15:01;;;;;;;67.10;32.63;;;;;;;32.10;44.97;99001.78;4919168;28;20540;-67
2022/10/29 05:17:57;;;;;;;64.18;30.75;;;;;;;31.51;40.45;98998.38;4950373;28;20545;-66
2022/10/29 05:20:46;;;;;;;62.17;30.38;;;;;;;32.19;46.45;98994.91;4965285;28;20058;-66
2022/10/29 05:23:35;;;;;;;57.33;29.20;;;;;;;31.96;41.77;98993.81;4964462;28;20063;-67
2022/10/29 05:26:39;;;;;;;75.82;31.00;;;;;;;32.21;41.89;98991.00;4967187;28;20117;-67
2022/10/29 05:29:28;;;;;;;71.32;31.27;;;;;;;32.48;39.97;98992.16;4975186;28;20076;-67
2022/10/29 05:32:10;;;;;;;68.10;30.58;;;;;;;32.53;41.51;98981.59;4987246;28;20104;-67
2022/10/29 05:34:59;;;;;;;62.33;31.10;;;;;;;31.91;37.70;98994.03;4966558;28;20053;-66
2022/10/29 05:37:48;;;;;;;55.45;30.42;;;;;;;32.66;41.39;98984.38;4966498;28;20672;-67
2022/10/29 05:40:30;;;;;;;60.58;32.25;;;;;;;32.00;39.14;98980.84;4970141;28;20047;-67
2022/10/29 05:43:21;;;;;;;77.65;33.85;;;;;;;32.11;38.98;98983.97;4965532;28;20062;-69
2022/10/29 05:46:03;;;;;;;63.78;31.70;;;;;;;32.16;40.07;98978.19;4967078;28;20059;-67
2022/10/29 05:48:53;;;;;;;56.67;31.15;;;;;;;32.10;40.24;98977.63;4959358;28;20794;-67
2022/10/29 05:51:49;;;;;;;51.42;30.50;;;;;;;32.62;43.26;98973.16;4967705;28;20050;-68
2022/10/29 05:54:24;;;;;;;58.40;32.33;;;;;;;32.89;41.37;98977.03;4965861;28;20488;-66
2022/10/29 05:57:13;;;;;;;64.10;32.42;;;;;;;32.42;38.25;98968.59;4964749;28;20051;-66
2022/10/29 05:59:55;;;;;;;70.32;32.25;;;;;;;32.44;37.75;98963.47;4966904;28;20054;-66
2022/10/29 06:02:47;;;;;;;60.95;29.63;;;;;;;32.39;37.42;98964.56;4967630;28;20058;-68
2022/10/29 06:05:30;;;;;;;53.13;31.23;;;;;;;32.19;39.12;98961.59;4967279;28;20545;-67
2022/10/29 06:08:19;;;;;;;48.70;28.00;;;;;;;32.29;37.68;98959.47;4963423;28;20074;-66
2022/10/29 06:11:01;;;;;;;56.42;28.10;;;;;;;32.42;40.63;98963.03;4971566;28;20055;-66
2022/10/29 06:14:01;;;;;;;61.05;29.38;;;;;;;32.04;39.36;98954.00;4963957;28;20548;-66
2022/10/29 06:16:36;;;;;;;56.08;27.98;;;;;;;32.43;38.88;98957.13;4965304;28;20055;-65
2022/10/29 06:19:32;;;;;;;52.55;27.05;;;;;;;32.37;37.57;98953.78;4964096;28;20047;-65
2022/10/29 06:22:07;;;;;;;53.58;27.02;;;;;;;31.85;38.55;98953.81;4962529;28;20673;-65
2022/10/29 06:24:56;;;;;;;52.83;27.40;;;;;;;32.10;40.26;98947.06;4963877;28;20447;-65
2022/10/29 06:27:38;;;;;;;54.85;30.50;;;;;;;32.24;37.57;98943.09;4965610;28;20054;-66
2022/10/29 06:30:28;;;;;;;48.50;26.55;;;;;;;32.55;38.02;98940.38;4946238;29;20062;-66
2022/10/29 06:33:11;;;;;;;56.10;27.25;;;;;;;32.11;37.11;98937.56;4958180;28;20054;-66
2022/10/29 06:36:00;;;;;;;56.70;27.02;;;;;;;32.21;38.96;98930.69;4971845;28;20042;-65
2022/10/29 06:38:49;;;;;;;46.20;25.38;;;;;;;32.38;38.59;98933.16;4965477;28;20047;-65
2022/10/29 06:41:31;;;;;;;48.45;24.67;;;;;;;32.17;36.83;98925.03;4943769;28;20073;-66
2022/10/29 06:44:25;;;;;;;49.60;25.88;;;;;;;32.02;37.45;98923.03;4968482;28;20042;-65
2022/10/29 06:47:07;;;;;;;50.13;27.00;;;;;;;31.65;38.75;98925.06;4966730;28;20043;-65
2022/10/29 06:49:56;;;;;;;50.70;25.85;;;;;;;32.38;39.62;98921.25;4965201;28;20117;-65
2022/10/29 06:52:38;;;;;;;49.58;25.25;;;;;;;32.66;37.39;98912.13;4940260;28;20054;-66
2022/10/29 06:55:27;;;;;;;55.40;25.30;;;;;;;32.55;37.38;98904.25;4961770;28;20046;-64
2022/10/29 06:58:14;;;;;;;46.53;25.30;;;;;;;32.63;38.43;98905.28;4965186;28;20671;-65
2022/10/29 07:01:06;;;;;;;42.20;22.30;;;;;;;32.65;36.99;98896.59;4965808;28;20042;-64
2022/10/29 07:03:48;;;;;;;50.28;26.17;;;;;;;32.95;37.09;98894.97;4965811;28;20129;-65
2022/10/29 07:06:39;;;;;;;46.47;24.40;;;;;;;32.92;35.50;98887.38;4942696;28;20054;-66
2022/10/29 07:09:21;;;;;;;61.38;25.88;;;;;;;32.50;37.20;98887.03;4963051;28;20047;-66
2022/10/29 07:12:10;;;;;;;52.20;25.15;;;;;;;32.77;37.54;98882.59;4964691;28;20043;-67
2022/10/29 07:14:59;;;;;;;46.30;24.65;;;;;;;32.85;35.83;98876.09;4965668;28;20046;-65
2022/10/29 07:18:05;;;;;;;50.58;25.30;;;;;;;32.69;37.23;98875.25;4964792;28;20117;-66
2022/10/29 07:20:43;;;;;;;42.60;25.25;;;;;;;32.69;36.18;98866.91;4965087;28;20090;-67
2022/10/29 07:23:39;;;;;;;39.03;23.33;;;;;;;32.27;34.98;98872.94;4965595;28;20050;-65
2022/10/29 07:26:15;;;;;;;42.80;23.60;;;;;;;32.58;36.30;98870.25;4967956;28;20051;-66
2022/10/29 07:29:04;;;;;;;48.22;22.80;;;;;;;32.91;34.77;98866.28;4948732;28;20065;-67
2022/10/29 07:31:46;;;;;;;47.80;23.60;;;;;;;32.55;33.65;98868.13;4931427;28;20050;-66
2022/10/29 07:34:35;;;;;;;46.42;22.55;;;;;;;32.63;35.59;98860.03;4967658;28;20050;-66
2022/10/29 07:37:20;;;;;;;53.22;22.58;;;;;;;32.65;34.44;98855.72;4915196;28;20062;-67
2022/10/29 07:40:17;;;;;;;51.80;22.75;;;;;;;32.39;33.44;98847.88;4970188;28;20066;-66
2022/10/29 07:42:53;;;;;;;40.08;21.30;;;;;;;32.82;36.11;98854.56;4947559;28;20058;-65
2022/10/29 07:45:52;;;;;;;40.92;21.67;;;;;;;32.65;36.30;98850.16;4968148;28;20446;-66
2022/10/29 07:48:27;;;;;;;48.63;23.92;;;;;;;32.78;35.22;98842.53;4970755;28;20047;-69
2022/10/29 07:51:23;;;;;;;38.78;21.40;;;;;;;32.63;34.34;98841.38;4968575;28;20461;-65
2022/10/29 07:53:58;;;;;;;36.70;21.38;;;;;;;32.88;34.41;98839.22;4968615;28;20142;-65
2022/10/29 07:56:59;;;;;;;46.53;21.60;;;;;;;32.36;34.28;98831.94;4964433;28;20118;-67
2022/10/29 07:59:34;;;;;;;41.50;22.08;;;;;;;32.12;33.16;98827.31;4936393;28;20202;-67
2022/10/29 08:02:24;;;;;;;37.45;22.58;;;;;;;32.67;36.50;98824.78;4960038;28;20050;-67
2022/10/29 08:05:14;;;;;;;36.35;22.10;;;;;;;32.64;34.98;98815.22;4960026;28;20059;-66
2022/10/29 08:08:04;;;;;;;51.78;22.80;;;;;;;32.19;34.59;98817.19;4962545;28;20102;-68
2022/10/29 08:10:46;;;;;;;41.28;22.08;;;;;;;32.02;36.31;98806.44;4938127;28;20153;-68
2022/10/29 08:13:35;;;;;;;49.03;23.20;;;;;;;32.07;35.37;98808.16;4929561;28;20572;-66
2022/10/29 08:16:17;;;;;;;38.47;20.92;;;;;;;31.96;32.58;98807.81;4959660;28;20056;-67
2022/10/29 08:19:13;;;;;;;43.33;21.50;;;;;;;32.36;35.48;98804.16;4964053;28;20054;-65
2022/10/29 08:22:02;;;;;;;50.75;24.33;;;;;;;32.22;34.52;98803.75;4947650;28;20133;-66
2022/10/29 08:24:52;;;;;;;50.90;22.33;;;;;;;32.19;34.87;98803.31;4926051;28;20501;-67
2022/10/29 08:27:41;;;;;;;47.35;25.27;;;;;;;32.42;34.08;98797.16;4601518;28;10000334;-65
2022/10/29 08:30:24;;;;;;;43.20;21.02;;;;;;;32.24;33.92;98807.03;4960841;28;20043;-68
2022/10/29 08:33:13;;;;;;;46.03;21.58;;;;;;;32.15;32.81;98793.28;4959337;28;20047;-66
2022/10/29 08:36:02;;;;;;;34.28;21.08;;;;;;;32.40;33.66;98799.50;4945469;28;20051;-66
2022/10/29 08:38:45;;;;;;;41.20;22.70;;;;;;;32.42;34.56;98802.72;4955598;28;20138;-66
2022/10/29 08:41:44;;;;;;;36.75;20.92;;;;;;;32.30;34.50;98794.47;4954162;28;20058;-65
2022/10/29 08:44:35;;;;;;;34.50;21.70;;;;;;;32.18;34.96;98793.38;4959922;28;20382;-65
2022/10/29 08:47:29;;;;;;;50.10;22.38;;;;;;;32.03;33.42;98796.16;4958775;28;20489;-64
2022/10/29 08:50:28;;;;;;;38.85;21.23;;;;;;;32.04;32.38;98793.00;4952995;28;20054;-65
2022/10/29 08:53:34;;;;;;;32.30;21.05;;;;;;;32.11;34.15;98790.41;4955071;28;20039;-65
2022/10/29 08:56:22;;;;;;;39.00;22.27;;;;;;;32.23;33.15;98777.63;4959730;28;20047;-64
2022/10/29 08:59:21;;;;;;;41.47;21.83;;;;;;;31.80;33.17;98774.50;4960717;28;20058;-67
2022/10/29 09:02:03;;;;;;;36.65;19.75;;;;;;;32.22;33.73;98776.81;4961275;28;20133;-65
2022/10/29 09:04:52;;;;;;;44.55;21.02;;;;;;;32.11;35.22;98770.97;4962796;28;20117;-65
2022/10/29 09:08:28;;;;;;;31.05;18.60;;;;;;;31.93;31.32;98772.44;4947266;28;20046;-64
2022/10/29 09:11:38;;;;;;;31.35;17.58;;;;;;;31.94;31.71;98766.53;4871866;29;20560;-65
2022/10/29 09:14:44;;;;;;;31.87;16.40;;;;;;;31.92;31.02;98765.28;4963013;28;20051;-66
2022/10/29 09:18:01;;;;;;;31.73;16.05;;;;;;;32.14;31.36;98761.94;4964058;28;20300;-65
2022/10/29 09:21:05;;;;;;;38.83;17.33;;;;;;;32.18;31.79;98762.03;4979812;28;20062;-64
2022/10/29 09:24:02;;;;;;;39.22;18.32;;;;;;;32.06;32.55;98759.34;4863637;28;10000751;-65
2022/10/29 09:26:58;;;;;;;39.90;18.70;;;;;;;31.71;31.17;98760.75;4981312;28;20254;-68
2022/10/29 09:30:04;;;;;;;43.22;18.50;;;;;;;31.92;31.33;98762.50;4979556;28;20061;-65
2022/10/29 09:33:06;;;;;;;37.70;19.65;;;;;;;32.10;33.36;98761.06;4975836;28;20097;-65
2022/10/29 09:35:58;;;;;;;34.03;20.98;;;;;;;31.90;32.50;98756.50;4976658;28;20050;-66
2022/10/29 09:39:12;;;;;;;39.65;22.63;;;;;;;31.90;32.26;98753.75;4975992;28;20311;-65
2022/10/29 09:41:59;;;;;;;32.35;18.80;;;;;;;31.91;31.65;98756.16;4974960;28;20053;-68
2022/10/29 09:44:54;;;;;;;40.58;19.52;;;;;;;31.77;31.92;98756.56;4978177;28;20481;-65
2022/10/29 09:48:03;;;;;;;37.85;21.42;;;;;;;31.76;32.73;98757.75;4981890;28;20053;-66
2022/10/29 09:50:53;;;;;;;34.28;20.17;;;;;;;31.81;33.05;98759.44;4630813;28;10000337;-66
2022/10/29 09:53:42;;;;;;;51.85;21.90;;;;;;;31.52;33.07;98755.06;4967102;28;20050;-67
2022/10/29 09:56:24;;;;;;;47.22;23.58;;;;;;;31.49;35.00;98750.22;4976978;28;20097;-66
2022/10/29 09:59:34;;;;;;;41.75;21.65;;;;;;;31.54;33.10;98761.06;4974969;28;20116;-65
2022/10/29 10:02:31;;;;;;;40.73;22.77;;;;;;;31.66;33.53;98747.13;4978997;28;20133;-66
2022/10/29 10:05:20;;;;;;;49.53;23.38;;;;;;;31.68;33.38;98753.16;4980740;28;20121;-65
2022/10/29 10:08:11;;;;;;;36.45;22.90;;;;;;;31.59;35.42;98749.72;4979288;28;20053;-67
2022/10/29 10:11:12;;;;;;;38.97;23.00;;;;;;;31.40;33.93;98753.13;4976714;28;20050;-66
2022/10/29 10:13:58;;;;;;;41.50;22.95;;;;;;;31.48;35.69;98751.41;4978982;28;20050;-66
2022/10/29 10:16:47;;;;;;;47.83;23.42;;;;;;;31.18;36.05;98740.59;4979246;28;20797;-65
2022/10/29 10:19:31;;;;;;;41.53;22.83;;;;;;;31.13;37.30;98744.41;4964058;28;20051;-65
2022/10/29 10:22:28;;;;;;;41.45;24.15;;;;;;;31.24;37.20;98741.94;4943205;28;20059;-64
2022/10/29 10:25:34;;;;;;;47.25;23.98;;;;;;;31.17;35.18;98742.56;4961356;28;20722;-65
2022/10/29 10:28:34;;;;;;;40.03;23.92;;;;;;;31.06;36.44;98743.41;4942206;28;20070;-65
2022/10/29 10:31:30;;;;;;;36.25;22.90;;;;;;;31.12;35.57;98750.31;4960911;28;20047;-64
2022/10/29 10:34:15;;;;;;;43.22;24.13;;;;;;;30.98;36.65;98732.09;4920276;28;20508;-65
2022/10/29 10:37:09;;;;;;;49.67;23.65;;;;;;;30.91;37.48;98739.38;4963296;28;20534;-66
2022/10/29 10:40:00;;;;;;;40.40;22.80;;;;;;;30.72;38.93;98729.66;4961856;28;20031;-67
2022/10/29 10:42:58;;;;;;;39.30;22.35;;;;;;;30.64;41.99;98747.22;4961942;28;20043;-66
2022/10/29 10:45:41;;;;;;;37.10;22.40;;;;;;;30.49;43.68;98743.19;4954988;28;20055;-68
2022/10/29 10:48:30;;;;;;;45.50;22.33;;;;;;;30.39;43.06;98747.22;4962433;28;20046;-64
2022/10/29 10:51:36;;;;;;;46.30;22.45;;;;;;;30.31;42.01;98742.59;4693634;28;10001237;-65
2022/10/29 10:54:40;;;;;;;43.97;23.85;;;;;;;30.35;42.22;98751.03;4963600;28;20250;-65
2022/10/29 10:57:35;;;;;;;47.28;24.55;;;;;;;30.15;41.99;98742.47;4959233;28;20046;-64
2022/10/29 11:00:19;;;;;;;40.00;23.88;;;;;;;30.12;43.81;98751.44;4962489;28;20043;-65
2022/10/29 11:03:26;;;;;;;49.53;23.30;;;;;;;29.95;45.79;98741.38;4960495;28;20730;-67
2022/10/29 11:06:14;;;;;;;47.83;23.85;;;;;;;29.91;45.13;98747.94;4966278;28;20047;-65
2022/10/29 11:09:52;;;;;;;46.40;25.00;;;;;;;29.74;46.30;98758.03;4964234;28;20054;-65
2022/10/29 11:12:41;;;;;;;49.15;23.83;;;;;;;29.64;46.35;98753.69;4622279;28;9999758;-66
2022/10/29 11:15:54;;;;;;;44.33;24.40;;;;;;;29.52;46.40;98756.41;4962866;28;20058;-66
2022/10/29 11:18:49;;;;;;;43.85;25.20;;;;;;;29.44;45.98;98749.78;4964553;28;20055;-67
2022/10/29 11:22:00;;;;;;;43.75;25.35;;;;;;;29.33;47.63;98759.69;4945310;28;20066;-67
2022/10/29 11:25:01;;;;;;;50.80;26.00;;;;;;;29.39;43.71;98755.56;4962725;28;20074;-67
2022/10/29 11:28:34;;;;;;;44.25;25.52;;;;;;;29.35;46.46;98759.31;4946737;28;20200;-67
2022/10/29 11:32:01;;;;;;;40.85;24.88;;;;;;;29.23;48.11;98760.88;4893309;29;20067;-67
2022/10/29 11:35:08;;;;;;;49.03;27.23;;;;;;;29.12;48.76;98765.16;4931741;28;20594;-66
2022/10/29 11:37:50;;;;;;;57.95;28.17;;;;;;;29.05;47.25;98762.91;4944436;28;20047;-67
2022/10/29 11:40:51;;;;;;;48.17;27.60;;;;;;;28.94;48.61;98763.66;4964388;28;20468;-68
2022/10/29 11:43:40;;;;;;;48.80;27.08;;;;;;;28.85;49.06;98763.69;4966185;28;20086;-66
2022/10/29 11:46:52;;;;;;;62.53;28.10;;;;;;;28.74;48.34;98766.06;4966884;28;20057;-66
2022/10/29 11:49:34;;;;;;;55.75;29.40;;;;;;;28.64;48.48;98778.28;4964865;28;20054;-66
2022/10/29 11:52:50;;;;;;;58.90;29.42;;;;;;;28.53;49.39;98774.28;4964714;28;20117;-66
2022/10/29 11:55:53;;;;;;;52.95;27.77;;;;;;;28.48;48.95;98777.19;4950613;28;20058;-66
2022/10/29 11:58:54;;;;;;;61.00;29.42;;;;;;;28.30;50.33;98774.50;4948660;28;20145;-65
2022/10/29 12:02:07;;;;;;;56.75;30.20;;;;;;;28.27;49.52;98785.38;4622180;28;10000043;-67
2022/10/29 12:05:14;;;;;;;51.30;29.40;;;;;;;28.14;50.87;98784.44;4947736;28;20075;-66
2022/10/29 12:08:13;;;;;;;58.50;30.65;;;;;;;28.08;51.10;98788.53;4943634;28;20058;-66
2022/10/29 12:11:19;;;;;;;53.30;29.35;;;;;;;28.00;50.33;98778.34;4965042;28;20141;-66
2022/10/29 12:14:17;;;;;;;58.30;30.13;;;;;;;27.92;50.40;98791.81;4967475;28;20740;-66
2022/10/29 12:17:41;;;;;;;;;;;;;;;27.87;52.68;98797.44;4969388;28;20138;-67
2022/10/29 12:20:40;;;;;;;53.83;29.45;;;;;;;27.74;52.36;98795.69;4925888;29;19934;-66
2022/10/29 12:23:53;;;;;;;54.92;30.98;;;;;;;27.68;52.46;98802.50;4966150;28;20047;-64
2022/10/29 12:26:54;;;;;;;60.78;32.30;;;;;;;27.58;53.36;98809.16;4967152;28;20049;-66
2022/10/29 12:29:35;;;;;;;65.55;31.67;;;;;;;27.48;53.00;98809.50;4968896;28;20133;-66
2022/10/29 12:32:33;;;;;;;61.90;34.67;;;;;;;27.49;52.65;98811.91;4969301;28;20053;-66
2022/10/29 12:35:14;;;;;;;56.90;30.30;;;;;;;27.40;53.75;98824.91;4983635;28;20057;-67
2022/10/29 12:38:36;;;;;;;65.35;32.70;;;;;;;27.38;53.82;98821.66;4975855;28;20038;-68
2022/10/29 12:41:25;;;;;;;61.17;31.45;;;;;;;27.28;53.92;98822.75;4966404;28;20109;-68
2022/10/29 12:44:32;;;;;;;61.63;31.02;;;;;;;27.13;54.22;98826.78;4973499;28;20046;-67
2022/10/29 12:47:54;;;;;;;69.18;33.40;;;;;;;27.11;54.12;98829.03;4970450;28;20058;-67
2022/10/29 12:51:13;;;;;;;68.07;33.33;;;;;;;27.07;54.15;98828.03;4625617;28;10000047;-65
2022/10/29 12:54:20;;;;;;;69.20;35.63;;;;;;;27.02;54.17;98833.72;4968253;28;20328;-64
2022/10/29 12:57:12;;;;;;;74.40;34.08;;;;;;;26.98;54.53;98829.16;4961511;28;20047;-68
2022/10/29 12:59:54;;;;;;;68.82;35.75;;;;;;;26.86;55.24;98844.34;4966079;28;20045;-66
2022/10/29 13:02:45;;;;;;;65.90;33.90;;;;;;;26.79;55.11;98840.41;4963779;28;20049;-67
2022/10/29 13:05:46;;;;;;;80.63;34.67;;;;;;;26.96;55.10;98848.72;4964236;28;20105;-64
2022/10/29 13:08:33;;;;;;;100.90;36.30;;;;;;;26.86;56.65;98852.59;4964692;28;20162;-63